createdAt,value
2018-11-20T00:01:16.464Z,66.80
2018-11-20T00:04:07.343Z,66.77
2018-11-20T00:07:04.046Z,66.87
2018-11-20T00:09:56.691Z,66.90
2018-11-20T00:12:44.472Z,66.63
2018-11-20T00:15:39.887Z,66.41
2018-11-20T00:18:30.894Z,66.46
2018-11-20T00:21:14.778Z,66.77
2018-11-20T00:24:04.250Z,66.74
2018-11-20T00:26:55.204Z,66.91
2018-11-20T00:29:46.253Z,66.86
2018-11-20T00:32:36.250Z,66.80
2018-11-20T00:35:30.463Z,67.13
2018-11-20T00:38:27.387Z,67.08
2018-11-20T00:41:08.110Z,66.95
2018-11-20T00:44:00.451Z,66.76
2018-11-20T00:46:54.511Z,66.91
2018-11-20T00:49:41.501Z,66.92
2018-11-20T00:52:32.498Z,67.00
2018-11-20T00:55:27.162Z,66.96
2018-11-20T00:58:18.223Z,67.12
2018-11-20T01:01:07.923Z,66.96
2018-11-20T01:03:59.042Z,66.94
2018-11-20T01:06:50.383Z,67.01
2018-11-20T01:09:44.149Z,67.05
2018-11-20T01:12:44.034Z,67.05
2018-11-20T01:15:26.420Z,67.17
2018-11-20T01:18:15.532Z,67.27
2018-11-20T01:21:12.239Z,67.20
2018-11-20T01:24:05.451Z,67.27
2018-11-20T01:27:14.455Z,67.14
2018-11-20T01:30:03.754Z,66.82
2018-11-20T01:32:53.051Z,66.73
2018-11-20T01:35:42.560Z,66.70
2018-11-20T01:38:33.640Z,67.09
2018-11-20T01:41:38.395Z,67.06
2018-11-20T01:44:38.546Z,66.92
2018-11-20T01:47:27.936Z,66.86
2018-11-20T01:50:14.827Z,66.87
2018-11-20T01:53:04.208Z,67.01
2018-11-20T01:56:04.315Z,67.26
2018-11-20T01:58:53.613Z,67.02
2018-11-20T02:01:47.202Z,67.10
2018-11-20T02:04:36.371Z,67.16
2018-11-20T02:07:38.507Z,67.13
2018-11-20T02:10:21.267Z,67.10
2018-11-20T02:13:56.535Z,67.04
2018-11-20T02:16:56.368Z,67.08
2018-11-20T02:19:47.495Z,67.00
2018-11-20T02:22:30.746Z,67.13
2018-11-20T02:25:21.728Z,67.21
2018-11-20T02:28:11.210Z,67.13
2018-11-20T02:31:04.792Z,67.02
2018-11-20T02:33:46.953Z,67.27
2018-11-20T02:36:52.723Z,67.11
2018-11-20T02:39:43.280Z,66.85
2018-11-20T02:42:32.833Z,66.72
2018-11-20T02:45:38.845Z,66.63
2018-11-20T02:48:29.472Z,66.66
2018-11-20T02:51:17.216Z,66.60
2018-11-20T02:54:20.236Z,66.72
2018-11-20T02:57:08.425Z,66.58
2018-11-20T02:59:57.938Z,66.84
2018-11-20T03:02:48.928Z,66.97
2018-11-20T03:05:38.465Z,66.87
2018-11-20T03:08:27.952Z,67.01
2018-11-20T03:11:24.720Z,66.94
2018-11-20T03:14:14.217Z,67.07
2018-11-20T03:17:08.065Z,67.02
2018-11-20T03:19:59.085Z,66.98
2018-11-20T03:22:50.072Z,67.14
2018-11-20T03:26:01.004Z,67.08
2018-11-20T03:29:20.550Z,67.01
2018-11-20T03:32:29.508Z,67.29
2018-11-20T03:35:23.277Z,67.17
2018-11-20T03:38:12.742Z,67.19
2018-11-20T03:41:21.583Z,67.47
2018-11-20T03:44:10.815Z,67.42
2018-11-20T03:47:04.681Z,67.45
2018-11-20T03:49:53.876Z,67.08
2018-11-20T03:52:43.132Z,67.52
2018-11-20T03:55:32.384Z,67.34
2018-11-20T03:58:21.779Z,67.37
2018-11-20T04:01:27.503Z,67.25
2018-11-20T04:04:33.253Z,67.02
2018-11-20T04:07:23.040Z,67.41
2018-11-20T04:10:12.182Z,67.28
2018-11-20T04:13:13.024Z,67.25
2018-11-20T04:16:05.996Z,67.30
2018-11-20T04:19:08.822Z,67.25
2018-11-20T04:22:08.632Z,67.27
2018-11-20T04:25:02.164Z,67.45
2018-11-20T04:27:49.595Z,67.41
2018-11-20T04:31:36.553Z,67.26
2018-11-20T04:34:27.521Z,66.97
2018-11-20T04:37:19.998Z,67.30
2018-11-20T04:40:16.679Z,67.34
2018-11-20T04:43:14.502Z,67.31
2018-11-20T04:46:24.384Z,67.02
2018-11-20T04:49:13.733Z,67.30
2018-11-20T04:52:04.711Z,67.40
2018-11-20T04:54:58.443Z,67.42
2018-11-20T04:57:42.265Z,67.50
2018-11-20T05:00:32.115Z,67.65
2018-11-20T05:03:31.871Z,67.53
2018-11-20T05:06:20.992Z,67.63
2018-11-20T05:09:14.507Z,67.59
2018-11-20T05:12:00.723Z,67.64
2018-11-20T05:14:51.662Z,67.74
2018-11-20T05:17:34.376Z,67.71
2018-11-20T05:20:24.147Z,67.84
2018-11-20T05:23:18.811Z,67.91
2018-11-20T05:26:12.578Z,68.21
2018-11-20T05:29:00.793Z,68.21
2018-11-20T05:32:09.493Z,68.09
2018-11-20T05:34:58.718Z,68.17
2018-11-20T05:37:45.530Z,67.94
2018-11-20T05:40:28.788Z,68.03
2018-11-20T05:43:18.362Z,68.27
2018-11-20T05:46:07.906Z,68.18
2018-11-20T05:48:57.380Z,68.30
2018-11-20T05:51:49.626Z,68.11
2018-11-20T05:54:38.891Z,68.22
2018-11-20T05:57:28.061Z,68.13
2018-11-20T06:00:17.309Z,68.32
2018-11-20T06:03:17.842Z,67.88
2018-11-20T06:06:07.274Z,67.94
2018-11-20T06:09:12.880Z,67.98
2018-11-20T06:12:02.205Z,67.98
2018-11-20T06:14:51.829Z,68.03
2018-11-20T06:17:41.084Z,68.27
2018-11-20T06:20:30.281Z,68.13
2018-11-20T06:23:13.356Z,67.86
2018-11-20T06:26:04.262Z,67.94
2018-11-20T06:29:07.267Z,67.95
2018-11-20T06:31:57.121Z,68.15
2018-11-20T06:34:35.308Z,68.07
2018-11-20T06:37:26.345Z,68.08
2018-11-20T06:40:05.800Z,68.06
2018-11-20T06:43:11.862Z,68.20
2018-11-20T06:46:01.200Z,68.29
2018-11-20T06:48:50.756Z,68.34
2018-11-20T06:51:56.600Z,68.72
2018-11-20T06:54:51.336Z,68.76
2018-11-20T06:57:55.103Z,68.65
2018-11-20T07:00:58.041Z,68.61
2018-11-20T07:04:04.123Z,68.68
2018-11-20T07:06:56.123Z,68.94
2018-11-20T07:09:52.364Z,69.10
2018-11-20T07:13:01.303Z,69.37
2018-11-20T07:16:10.709Z,69.56
2018-11-20T07:19:01.911Z,69.63
2018-11-20T07:21:50.950Z,69.89
2018-11-20T07:24:37.632Z,70.15
2018-11-20T07:27:27.217Z,70.26
2018-11-20T07:30:21.174Z,70.22
2018-11-20T07:33:14.561Z,70.09
2018-11-20T07:36:04.165Z,70.11
2018-11-20T07:39:05.054Z,69.80
2018-11-20T07:41:48.617Z,69.74
2018-11-20T07:44:51.554Z,69.55
2018-11-20T07:47:48.587Z,69.35
2018-11-20T07:50:45.525Z,69.23
2018-11-20T07:53:35.614Z,69.16
2018-11-20T07:56:24.950Z,69.31
2018-11-20T07:59:14.334Z,69.60
2018-11-20T08:02:14.185Z,69.45
2018-11-20T08:05:03.298Z,69.21
2018-11-20T08:07:56.956Z,69.02
2018-11-20T08:10:53.482Z,68.88
2018-11-20T08:14:02.708Z,68.85
2018-11-20T08:16:52.000Z,68.76
2018-11-20T08:19:51.673Z,68.88
2018-11-20T08:22:57.846Z,68.54
2018-11-20T08:25:56.413Z,68.35
2018-11-20T08:28:43.992Z,68.12
2018-11-20T08:31:29.531Z,67.39
2018-11-20T08:34:19.289Z,66.76
2018-11-20T08:37:28.736Z,66.83
2018-11-20T08:40:18.195Z,66.80
2018-11-20T08:43:23.966Z,66.53
2018-11-20T08:46:14.853Z,66.48
2018-11-20T08:49:08.316Z,66.17
2018-11-20T08:52:02.068Z,66.30
2018-11-20T08:55:05.129Z,66.32
2018-11-20T08:57:58.917Z,66.49
2018-11-20T09:00:38.840Z,65.85
2018-11-20T09:03:28.212Z,65.80
2018-11-20T09:06:14.388Z,65.50
2018-11-20T09:09:11.020Z,65.20
2018-11-20T09:12:04.900Z,65.21
2018-11-20T09:15:04.922Z,65.22
2018-11-20T09:18:05.047Z,65.10
2018-11-20T09:21:07.757Z,64.86
2018-11-20T09:24:01.627Z,64.90
2018-11-20T09:26:55.980Z,64.59
2018-11-20T09:29:59.135Z,64.57
2018-11-20T09:33:02.031Z,65.22
2018-11-20T09:36:10.691Z,65.47
2018-11-20T09:39:00.173Z,65.83
2018-11-20T09:41:54.843Z,66.47
2018-11-20T09:45:15.219Z,66.76
2018-11-20T09:48:06.193Z,66.57
2018-11-20T09:51:15.333Z,66.39
2018-11-20T09:54:06.412Z,66.23
2018-11-20T09:56:59.953Z,66.46
2018-11-20T09:59:52.694Z,66.06
2018-11-20T10:02:38.120Z,65.93
2018-11-20T10:05:27.859Z,66.09
2018-11-20T10:08:27.653Z,66.01
2018-11-20T10:11:36.545Z,65.65
2018-11-20T10:14:24.452Z,65.66
2018-11-20T10:17:36.041Z,65.47
2018-11-20T10:20:27.810Z,65.50
2018-11-20T10:23:27.601Z,65.29
2018-11-20T10:26:17.208Z,64.88
2018-11-20T10:29:08.215Z,65.09
2018-11-20T10:32:01.672Z,65.41
2018-11-20T10:34:52.772Z,65.50
2018-11-20T10:37:30.000Z,65.99
2018-11-20T10:40:27.007Z,66.34
2018-11-20T10:43:17.563Z,66.26
2018-11-20T10:46:06.876Z,66.25
2018-11-20T10:49:12.581Z,66.50
2018-11-20T10:52:02.213Z,66.93
2018-11-20T10:54:48.756Z,66.59
2018-11-20T10:57:51.795Z,66.86
2018-11-20T11:00:41.243Z,66.43
2018-11-20T11:03:26.134Z,66.76
2018-11-20T11:06:15.925Z,67.20
2018-11-20T11:09:06.266Z,67.32
2018-11-20T11:11:56.617Z,67.21
2018-11-20T11:14:46.453Z,67.16
2018-11-20T11:17:48.746Z,67.24
2018-11-20T11:20:39.961Z,67.56
2018-11-20T11:23:30.983Z,67.79
2018-11-20T11:26:22.123Z,67.53
2018-11-20T11:29:24.979Z,67.77
2018-11-20T11:32:24.972Z,67.89
2018-11-20T11:35:14.191Z,68.13
2018-11-20T11:38:02.993Z,68.21
2018-11-20T11:40:52.446Z,67.85
2018-11-20T11:43:52.093Z,67.98
2018-11-20T11:46:43.083Z,68.13
2018-11-20T11:49:32.302Z,68.04
2018-11-20T11:52:25.352Z,67.87
2018-11-20T11:55:03.002Z,68.03
2018-11-20T11:58:49.520Z,68.17
2018-11-20T12:04:14.339Z,67.75
2018-11-20T12:07:15.895Z,67.92
2018-11-20T12:10:03.905Z,68.09
2018-11-20T12:12:56.070Z,67.95
2018-11-20T12:15:51.495Z,68.14
2018-11-20T12:18:39.640Z,68.20
2018-11-20T12:21:34.897Z,68.21
2018-11-20T12:24:29.247Z,68.16
2018-11-20T12:27:16.335Z,68.21
2018-11-20T12:30:04.467Z,68.29
2018-11-20T12:32:54.223Z,68.27
2018-11-20T12:35:49.529Z,67.96
2018-11-20T12:38:43.435Z,68.08
2018-11-20T12:41:28.593Z,68.06
2018-11-20T12:44:20.210Z,67.84
2018-11-20T12:47:09.257Z,68.11
2018-11-20T12:50:02.891Z,67.82
2018-11-20T12:52:56.065Z,67.72
2018-11-20T12:55:39.774Z,67.77
2018-11-20T12:58:41.065Z,67.78
2018-11-20T13:01:39.887Z,67.61
2018-11-20T13:04:31.238Z,67.79
2018-11-20T13:07:18.922Z,67.97
2018-11-20T13:10:11.191Z,67.77
2018-11-20T13:13:12.760Z,67.37
2018-11-20T13:16:17.458Z,67.37
2018-11-20T13:19:04.421Z,67.62
2018-11-20T13:22:06.021Z,67.61
2018-11-20T13:25:01.755Z,67.35
2018-11-20T13:27:51.658Z,67.29
2018-11-20T13:30:39.572Z,67.32
2018-11-20T13:33:29.090Z,67.30
2018-11-20T13:36:24.788Z,67.02
2018-11-20T13:39:13.836Z,67.01
2018-11-20T13:42:01.446Z,67.05
2018-11-20T13:45:18.430Z,66.99
2018-11-20T13:48:07.300Z,67.07
2018-11-20T13:50:51.955Z,66.51
2018-11-20T13:53:47.341Z,66.61
2018-11-20T13:56:45.995Z,66.30
2018-11-20T13:59:34.318Z,66.28
2018-11-20T14:02:27.713Z,65.93
2018-11-20T14:05:23.186Z,65.89
2018-11-20T14:08:23.027Z,65.82
2018-11-20T14:11:16.146Z,65.27
2018-11-20T14:14:02.456Z,65.67
2018-11-20T14:16:50.233Z,65.45
2018-11-20T14:19:45.823Z,65.05
2018-11-20T14:22:31.660Z,64.97
2018-11-20T14:25:21.081Z,64.74
2018-11-20T14:28:05.124Z,64.88
2018-11-20T14:31:01.084Z,65.20
2018-11-20T14:33:53.012Z,65.05
2018-11-20T14:36:46.702Z,64.40
2018-11-20T14:39:44.427Z,64.29
2018-11-20T14:42:39.522Z,64.45
2018-11-20T14:45:44.069Z,64.86
2018-11-20T14:48:36.667Z,64.91
2018-11-20T14:51:29.252Z,64.54
2018-11-20T14:54:12.496Z,64.42
2018-11-20T14:57:11.673Z,64.13
2018-11-20T14:59:59.431Z,63.95
2018-11-20T15:02:47.271Z,64.12
2018-11-20T15:05:35.179Z,64.27
2018-11-20T15:08:40.021Z,64.14
2018-11-20T15:11:32.615Z,64.39
2018-11-20T15:14:20.417Z,64.46
2018-11-20T15:17:12.866Z,63.91
2018-11-20T15:20:00.917Z,64.26
2018-11-20T15:22:48.997Z,64.42
2018-11-20T15:25:37.100Z,64.43
2018-11-20T15:28:24.400Z,64.65
2018-11-20T15:31:19.594Z,64.31
2018-11-20T15:34:01.273Z,64.28
2018-11-20T15:37:02.835Z,64.21
2018-11-20T15:39:47.075Z,64.31
2018-11-20T15:42:35.274Z,64.54
2018-11-20T15:45:23.305Z,64.42
2018-11-20T15:48:15.812Z,64.47
2018-11-20T15:51:22.895Z,64.63
2018-11-20T15:54:11.039Z,64.54
2018-11-20T15:56:58.771Z,64.76
2018-11-20T15:59:47.329Z,64.72
2018-11-20T16:02:34.385Z,64.94
2018-11-20T16:05:26.042Z,64.72
2018-11-20T16:08:28.179Z,65.16
2018-11-20T16:11:18.921Z,65.65
2018-11-20T16:14:07.615Z,66.00
2018-11-20T16:16:57.378Z,66.35
2018-11-20T16:19:45.947Z,66.66
2018-11-20T16:22:33.803Z,66.97
2018-11-20T16:25:35.589Z,67.13
2018-11-20T16:28:34.261Z,67.37
2018-11-20T16:31:14.323Z,67.55
2018-11-20T16:34:09.870Z,67.66
2018-11-20T16:36:51.327Z,67.57
2018-11-20T16:39:41.096Z,67.36
2018-11-20T16:42:30.776Z,67.31
2018-11-20T16:45:18.878Z,67.44
2018-11-20T16:48:07.081Z,67.52
2018-11-20T16:50:56.946Z,67.64
2018-11-20T16:53:45.166Z,67.33
2018-11-20T16:56:33.551Z,66.86
2018-11-20T16:59:21.744Z,67.34
2018-11-20T17:02:23.719Z,67.58
2018-11-20T17:05:22.606Z,67.27
2018-11-20T17:08:01.297Z,67.33
2018-11-20T17:10:49.830Z,67.62
2018-11-20T17:13:33.821Z,67.80
2018-11-20T17:16:26.338Z,67.90
2018-11-20T17:19:18.976Z,67.82
2018-11-20T17:22:14.254Z,67.91
2018-11-20T17:25:16.087Z,67.83
2018-11-20T17:28:13.044Z,67.46
2018-11-20T17:31:11.836Z,66.92
2018-11-20T17:34:01.626Z,67.54
2018-11-20T17:36:50.137Z,67.88
2018-11-20T17:39:38.847Z,68.19
2018-11-20T17:42:27.639Z,68.36
2018-11-20T17:45:20.186Z,68.50
2018-11-20T17:48:16.137Z,68.52
2018-11-20T17:51:17.975Z,68.87
2018-11-20T17:54:11.091Z,68.64
2018-11-20T17:57:02.219Z,69.30
2018-11-20T17:59:50.582Z,69.67
2018-11-20T18:02:39.070Z,67.95
2018-11-20T18:05:27.309Z,68.22
2018-11-20T18:08:15.727Z,68.25
2018-11-20T18:11:04.253Z,68.68
2018-11-20T18:13:52.792Z,69.38
2018-11-20T18:16:41.141Z,69.99
2018-11-20T18:19:33.763Z,70.31
2018-11-20T18:22:22.022Z,70.16
2018-11-20T18:25:17.982Z,70.46
2018-11-20T18:27:58.161Z,71.04
2018-11-20T18:30:43.265Z,71.07
2018-11-20T18:33:31.465Z,70.72
2018-11-20T18:36:17.409Z,70.76
2018-11-20T18:39:08.814Z,70.27
2018-11-20T18:41:58.681Z,70.03
2018-11-20T18:45:06.667Z,70.97
2018-11-20T18:48:14.669Z,71.36
2018-11-20T18:50:57.579Z,71.95
2018-11-20T18:53:50.704Z,72.40
2018-11-20T18:56:38.879Z,72.73
2018-11-20T18:59:46.742Z,73.55
2018-11-20T19:02:47.489Z,74.55
2018-11-20T19:05:38.130Z,74.57
2018-11-20T19:08:28.110Z,76.48
2018-11-20T19:11:29.574Z,76.25
2018-11-20T19:14:18.286Z,76.94
2018-11-20T19:17:08.121Z,77.18
2018-11-20T19:20:09.996Z,76.88
2018-11-20T19:22:59.924Z,77.41
2018-11-20T19:25:46.103Z,77.30
2018-11-20T19:28:43.527Z,77.12
2018-11-20T19:31:41.423Z,78.08
2018-11-20T19:34:25.582Z,77.92
2018-11-20T19:37:11.533Z,78.05
2018-11-20T19:39:59.816Z,78.19
2018-11-20T19:42:47.733Z,78.50
2018-11-20T19:45:40.090Z,78.25
2018-11-20T19:48:30.793Z,78.06
2018-11-20T19:51:26.990Z,78.13
2018-11-20T19:54:19.867Z,77.84
2018-11-20T19:57:07.898Z,77.92
2018-11-20T19:59:56.623Z,78.42
2018-11-20T20:02:51.926Z,78.05
2018-11-20T20:05:38.739Z,77.72
2018-11-20T20:08:24.234Z,77.62
2018-11-20T20:11:19.955Z,77.50
2018-11-20T20:14:07.395Z,77.46
2018-11-20T20:16:55.955Z,77.39
2018-11-20T20:19:45.857Z,77.23
2018-11-20T20:22:44.666Z,77.30
2018-11-20T20:25:32.778Z,76.92
2018-11-20T20:28:20.947Z,75.96
2018-11-20T20:31:09.210Z,75.43
2018-11-20T20:33:59.049Z,74.76
2018-11-20T20:36:47.169Z,74.93
2018-11-20T20:39:33.763Z,74.89
2018-11-20T20:42:26.203Z,74.96
2018-11-20T20:45:25.010Z,74.91
2018-11-20T20:48:16.641Z,74.73
2018-11-20T20:51:08.792Z,74.83
2018-11-20T20:53:57.478Z,74.87
2018-11-20T20:56:46.558Z,74.97
2018-11-20T20:59:54.577Z,75.44
2018-11-20T21:02:47.432Z,75.66
2018-11-20T21:05:27.541Z,75.71
2018-11-20T21:08:15.578Z,76.14
2018-11-20T21:10:57.725Z,76.25
2018-11-20T21:13:47.506Z,77.09
2018-11-20T21:16:33.698Z,78.14
2018-11-20T21:19:41.595Z,78.53
2018-11-20T21:22:34.040Z,79.17
2018-11-20T21:25:19.664Z,79.41
2018-11-20T21:28:18.225Z,79.01
2018-11-20T21:31:10.638Z,79.52
2018-11-20T21:34:00.414Z,79.75
2018-11-20T21:36:56.168Z,80.27
2018-11-20T21:39:51.703Z,80.67
2018-11-20T21:42:40.222Z,80.68
2018-11-20T21:45:33.657Z,81.25
2018-11-20T21:48:21.991Z,81.55
2018-11-20T21:51:15.776Z,81.22
2018-11-20T21:54:05.766Z,81.30
2018-11-20T21:57:13.225Z,81.53
2018-11-20T22:00:08.590Z,81.23
2018-11-20T22:02:55.743Z,81.37
2018-11-20T22:05:43.888Z,81.72
2018-11-20T22:08:39.706Z,81.44
2018-11-20T22:11:35.573Z,81.97
2018-11-20T22:14:23.819Z,81.77
2018-11-20T22:17:28.514Z,81.85
2018-11-20T22:20:21.672Z,81.72
2018-11-20T22:23:05.329Z,81.86
2018-11-20T22:25:53.790Z,81.95
2018-11-20T22:28:55.264Z,81.99
2018-11-20T22:31:48.046Z,82.00
2018-11-20T22:34:36.582Z,81.77
2018-11-20T22:37:17.603Z,81.83
2018-11-20T22:40:13.375Z,81.66
2018-11-20T22:43:08.767Z,81.78
2018-11-20T22:45:56.703Z,82.06
2018-11-20T22:48:52.154Z,82.16
2018-11-20T22:51:47.441Z,81.97
2018-11-20T22:54:35.858Z,81.96
2018-11-20T22:57:28.222Z,82.02
2018-11-20T23:00:21.163Z,82.17
2018-11-20T23:02:58.834Z,82.24
2018-11-20T23:06:01.899Z,82.40
2018-11-20T23:08:35.576Z,82.45
2018-11-20T23:11:06.428Z,82.68
2018-11-20T23:13:37.315Z,82.71
2018-11-20T23:16:08.158Z,82.54
2018-11-20T23:18:38.961Z,82.38
2018-11-20T23:21:09.902Z,82.18
2018-11-20T23:23:40.737Z,81.97
2018-11-20T23:26:11.595Z,81.61
2018-11-20T23:28:42.434Z,81.36
2018-11-20T23:31:13.430Z,81.11
2018-11-20T23:33:44.307Z,80.78
2018-11-20T23:36:15.142Z,80.40
2018-11-20T23:38:45.857Z,80.41
2018-11-20T23:41:16.900Z,80.26
2018-11-20T23:43:47.785Z,80.12
2018-11-20T23:46:21.289Z,80.04
2018-11-20T23:48:51.974Z,79.90
2018-11-20T23:51:22.756Z,79.96
2018-11-20T23:53:53.752Z,80.13
2018-11-20T23:56:24.572Z,80.30
2018-11-20T23:58:55.461Z,80.49
